Grande Italia — IBTF — position and weather

sailwx.info

Track history (hours):
 
Tides and Currents Weather Stations Pressure Air Temp Water Temp Dewpoint Dewpoint Depression Visibility Wind Speed Wind Dir Waves Ship Positions

Grande Italia

Last reported at 2015-May-26 03:32 UTC. Time now 2015-May-26 05:45 UTC.
Position N 39°38' W 000°13'.

Length 177 m; draft 8.2 m.

Type: Ship. MMSI: 247039300.

Date/timePositionNaut miles runAvg speedWind from/ knotsBaromVisibWave heightAir tempDewpointWater temp
2015-May-26 03:32N 39°38' W 000°13'8 8.2
2015-May-26 02:33N 39°35' W 000°03'3014.7
2015-May-26 00:30N 39°28' E 000°35'1414.4
2015-May-25 23:33N 39°25' E 000°52'1414.4
2015-May-25 22:33N 39°21' E 001°10'1514.6
2015-May-25 21:33N 39°17' E 001°29'1514.7
2015-May-25 20:34N 39°14' E 001°47'1615.8
2015-May-25 19:33N 39°10' E 002°07'1515.4
2015-May-25 18:33N 39°07' E 002°26'1515.5
2015-May-25 17:33N 39°03' E 002°46'1615.9
2015-May-25 16:33N 39°01' E 003°06'1616.0
2015-May-25 15:33N 38°59' E 003°27'1515.5
2015-May-25 14:33N 38°58' E 003°46'22815.2
2015-May-24 23:33N 38°42' E 008°39'1715.3
2015-May-24 22:26N 38°42' E 009°01'1415.8
2015-May-24 21:33N 38°46' E 009°18'1716.3
2015-May-24 20:30N 38°53' E 009°38'1516.0
2015-May-24 19:33N 38°60' E 009°56'18815.7
2015-May-24 07:33N 40°15' E 013°39'1615.6
2015-May-24 06:31N 40°22' E 013°59'1615.9
2015-May-24 05:29N 40°29' E 014°18'1515.9
2015-May-24 04:31N 40°35' E 014°36'  
2015-May-21 16:30N 40°32' E 014°45'1915.4
2015-May-21 15:18N 40°13' E 014°44'10315.1
2015-May-21 08:26N 38°37' E 015°33'1315.2
2015-May-21 07:33N 38°25' E 015°40'1212.4
2015-May-21 06:33N 38°13' E 015°37'1110.5
2015-May-21 05:33N 38°02' E 015°36'1414.4
2015-May-21 04:33N 37°51' E 015°48'1515.0
2015-May-21 03:32N 37°47' E 016°07'1515.0
2015-May-21 02:33N 37°42' E 016°25'2014.9
2015-May-21 01:12N 37°37' E 016°49'1015.1
2015-May-21 00:33N 37°34' E 017°01'1515.2
2015-May-20 23:33N 37°29' E 017°19'1515.2
2015-May-20 22:33N 37°24' E 017°37'1615.6
2015-May-20 21:33N 37°20' E 017°56'1515.3
2015-May-20 20:33N 37°15' E 018°14'1515.1
2015-May-20 19:33N 37°10' E 018°32'30714.6
2015-May-19 22:32N 36°05' E 024°46'1414.5
2015-May-19 21:33N 36°05' E 025°04'1514.9
2015-May-19 20:33N 36°05' E 025°22'1515.1
2015-May-19 19:33N 36°06' E 025°41'1615.5
2015-May-19 18:33N 36°07' E 026°00'1515.2
2015-May-19 17:33N 36°08' E 026°19'1515.0
2015-May-19 16:33N 36°06' E 026°37'1515.0
2015-May-19 15:32N 36°03' E 026°55'2015.2
2015-May-19 14:13N 35°57' E 027°19'1015.4
2015-May-19 13:33N 35°52' E 027°30'1515.2
2015-May-19 12:33N 35°46' E 027°47'1616.1
2015-May-19 11:33N 35°46' E 028°07'322 7.0
2015-May-17 13:33N 36°48' E 034°39'8 5.7
2015-May-17 12:13N 36°41' E 034°42'4917.6
2015-May-17 09:27N 35°54' E 034°59'1718.5
2015-May-17 08:31N 35°38' E 035°06'1918.0
2015-May-17 07:29N 35°20' E 035°13'1718.2
2015-May-17 06:32N 35°04' E 035°18'1817.9
2015-May-17 05:33N 34°47' E 035°24'40 2.9
2015-May-16 15:33N 34°07' E 035°32'1212.4
2015-May-16 14:33N 33°54' E 035°31'0 0.2
2015-May-16 11:31N 33°54' E 035°31'0 0.0
2015-May-16 10:10N 33°54' E 035°31'0 0.0
2015-May-16 07:28N 33°54' E 035°31'  
Track history (hours):
 
Tides and Currents Weather Stations Pressure Air Temp Water Temp Dewpoint Dewpoint Depression Visibility Wind Speed Wind Dir Waves Ship Positions

Grande Italia

Last reported at 2015-May-26 03:32 UTC. Time now 2015-May-26 05:45 UTC.
Position N 39°38' W 000°13'.

Length 177 m; draft 8.2 m.

Type: Ship. MMSI: 247039300.

Date/timePositionNaut miles runAvg speedWind from/ knotsBaromVisibWave heightAir tempDewpointWater temp
2015-May-26 03:32N 39°38' W 000°13'8 8.2
2015-May-26 02:33N 39°35' W 000°03'3014.7
2015-May-26 00:30N 39°28' E 000°35'1414.4
2015-May-25 23:33N 39°25' E 000°52'1414.4
2015-May-25 22:33N 39°21' E 001°10'1514.6
2015-May-25 21:33N 39°17' E 001°29'1514.7
2015-May-25 20:34N 39°14' E 001°47'1615.8
2015-May-25 19:33N 39°10' E 002°07'1515.4
2015-May-25 18:33N 39°07' E 002°26'1515.5
2015-May-25 17:33N 39°03' E 002°46'1615.9
2015-May-25 16:33N 39°01' E 003°06'1616.0
2015-May-25 15:33N 38°59' E 003°27'1515.5
2015-May-25 14:33N 38°58' E 003°46'22815.2
2015-May-24 23:33N 38°42' E 008°39'1715.3
2015-May-24 22:26N 38°42' E 009°01'1415.8
2015-May-24 21:33N 38°46' E 009°18'1716.3
2015-May-24 20:30N 38°53' E 009°38'1516.0
2015-May-24 19:33N 38°60' E 009°56'18815.7
2015-May-24 07:33N 40°15' E 013°39'1615.6
2015-May-24 06:31N 40°22' E 013°59'1615.9
2015-May-24 05:29N 40°29' E 014°18'1515.9
2015-May-24 04:31N 40°35' E 014°36'  
2015-May-21 16:30N 40°32' E 014°45'1915.4
2015-May-21 15:18N 40°13' E 014°44'10315.1
2015-May-21 08:26N 38°37' E 015°33'1315.2
2015-May-21 07:33N 38°25' E 015°40'1212.4
2015-May-21 06:33N 38°13' E 015°37'1110.5
2015-May-21 05:33N 38°02' E 015°36'1414.4
2015-May-21 04:33N 37°51' E 015°48'1515.0
2015-May-21 03:32N 37°47' E 016°07'1515.0
2015-May-21 02:33N 37°42' E 016°25'2014.9
2015-May-21 01:12N 37°37' E 016°49'1015.1
2015-May-21 00:33N 37°34' E 017°01'1515.2
2015-May-20 23:33N 37°29' E 017°19'1515.2
2015-May-20 22:33N 37°24' E 017°37'1615.6
2015-May-20 21:33N 37°20' E 017°56'1515.3
2015-May-20 20:33N 37°15' E 018°14'1515.1
2015-May-20 19:33N 37°10' E 018°32'30714.6
2015-May-19 22:32N 36°05' E 024°46'1414.5
2015-May-19 21:33N 36°05' E 025°04'1514.9
2015-May-19 20:33N 36°05' E 025°22'1515.1
2015-May-19 19:33N 36°06' E 025°41'1615.5
2015-May-19 18:33N 36°07' E 026°00'1515.2
2015-May-19 17:33N 36°08' E 026°19'1515.0
2015-May-19 16:33N 36°06' E 026°37'1515.0
2015-May-19 15:32N 36°03' E 026°55'2015.2
2015-May-19 14:13N 35°57' E 027°19'1015.4
2015-May-19 13:33N 35°52' E 027°30'1515.2
2015-May-19 12:33N 35°46' E 027°47'1616.1
2015-May-19 11:33N 35°46' E 028°07'322 7.0
2015-May-17 13:33N 36°48' E 034°39'8 5.7
2015-May-17 12:13N 36°41' E 034°42'4917.6
2015-May-17 09:27N 35°54' E 034°59'1718.5
2015-May-17 08:31N 35°38' E 035°06'1918.0
2015-May-17 07:29N 35°20' E 035°13'1718.2
2015-May-17 06:32N 35°04' E 035°18'1817.9
2015-May-17 05:33N 34°47' E 035°24'40 2.9
2015-May-16 15:33N 34°07' E 035°32'1212.4
2015-May-16 14:33N 33°54' E 035°31'0 0.2
2015-May-16 11:31N 33°54' E 035°31'0 0.0
2015-May-16 10:10N 33°54' E 035°31'0 0.0
2015-May-16 07:28N 33°54' E 035°31'  

Dump ship's entire track history